createdAt,value
2019-05-20T00:01:52.851Z,21.20
2019-05-20T00:04:30.546Z,19.92
2019-05-20T00:07:07.383Z,20.00
2019-05-20T00:09:44.703Z,20.80
2019-05-20T00:12:21.316Z,19.42
2019-05-20T00:14:59.061Z,17.95
2019-05-20T00:17:35.761Z,17.25
2019-05-20T00:20:13.938Z,16.93
2019-05-20T00:22:50.777Z,16.87
2019-05-20T00:25:27.823Z,16.27
2019-05-20T00:28:04.835Z,17.87
2019-05-20T00:30:41.588Z,15.10
2019-05-20T00:33:16.881Z,16.00
2019-05-20T00:35:54.760Z,16.60
2019-05-20T00:38:31.864Z,14.95
2019-05-20T00:41:09.194Z,14.18
2019-05-20T00:43:46.994Z,14.60
2019-05-20T00:46:25.472Z,12.98
2019-05-20T00:49:03.599Z,13.55
2019-05-20T00:51:41.748Z,13.53
2019-05-20T00:54:18.861Z,12.65
2019-05-20T00:56:55.696Z,11.85
2019-05-20T00:59:32.943Z,11.20
2019-05-20T01:02:10.538Z,11.88
2019-05-20T01:04:48.451Z,10.58
2019-05-20T01:07:23.776Z,11.15
2019-05-20T01:10:01.602Z,12.25
2019-05-20T01:12:39.786Z,10.88
2019-05-20T01:15:18.563Z,11.20
2019-05-20T01:17:55.243Z,9.68
2019-05-20T01:20:32.909Z,10.00
2019-05-20T01:23:09.715Z,9.53
2019-05-20T01:25:47.737Z,9.73
2019-05-20T01:28:24.216Z,9.25
2019-05-20T01:31:04.401Z,10.23
2019-05-20T01:33:42.312Z,9.78
2019-05-20T01:36:18.566Z,9.43
2019-05-20T01:38:55.600Z,9.65
2019-05-20T01:41:33.076Z,9.85
2019-05-20T01:44:09.282Z,10.10
2019-05-20T01:46:46.168Z,9.65
2019-05-20T01:49:23.355Z,9.73
2019-05-20T01:52:00.975Z,9.43
2019-05-20T01:54:37.524Z,9.03
2019-05-20T01:57:15.369Z,8.58
2019-05-20T01:59:52.046Z,9.23
2019-05-20T02:02:29.325Z,8.95
2019-05-20T02:05:06.461Z,8.30
2019-05-20T02:07:43.476Z,7.70
2019-05-20T02:10:20.227Z,9.20
2019-05-20T02:12:57.681Z,8.30
2019-05-20T02:15:42.029Z,7.87
2019-05-20T02:18:18.866Z,7.78
2019-05-20T02:20:56.758Z,6.72
2019-05-20T02:23:34.385Z,7.33
2019-05-20T02:26:11.969Z,7.28
2019-05-20T02:28:49.730Z,7.45
2019-05-20T02:31:26.956Z,7.00
2019-05-20T02:34:04.898Z,6.50
2019-05-20T02:36:42.342Z,7.20
2019-05-20T02:39:19.778Z,7.20
2019-05-20T02:41:56.955Z,7.55
2019-05-20T02:44:33.275Z,6.87
2019-05-20T02:47:10.580Z,7.55
2019-05-20T02:49:47.761Z,7.53
2019-05-20T02:52:25.136Z,7.08
2019-05-20T02:55:02.090Z,7.17
2019-05-20T02:57:39.913Z,7.92
2019-05-20T03:00:17.988Z,8.68
2019-05-20T03:02:53.464Z,8.43
2019-05-20T03:05:33.360Z,8.93
2019-05-20T03:08:10.022Z,7.47
2019-05-20T03:10:47.205Z,8.55
2019-05-20T03:13:25.149Z,8.15
2019-05-20T03:16:02.653Z,8.98
2019-05-20T03:18:40.386Z,9.15
2019-05-20T03:21:17.406Z,7.83
2019-05-20T03:23:54.580Z,6.85
2019-05-20T03:26:31.091Z,7.62
2019-05-20T03:29:07.444Z,8.23
2019-05-20T03:31:44.977Z,8.48
2019-05-20T03:34:43.923Z,7.30
2019-05-20T03:36:59.784Z,7.12
2019-05-20T03:39:37.815Z,6.78
2019-05-20T03:42:15.700Z,7.17
2019-05-20T03:44:53.637Z,7.50
2019-05-20T03:47:30.584Z,7.37
2019-05-20T03:50:08.671Z,7.47
2019-05-20T03:52:47.156Z,6.28
2019-05-20T03:55:25.497Z,6.95
2019-05-20T03:58:03.730Z,6.05
2019-05-20T04:00:49.258Z,7.00
2019-05-20T04:03:26.125Z,7.42
2019-05-20T04:06:02.711Z,7.60
2019-05-20T04:08:40.057Z,6.87
2019-05-20T04:11:17.011Z,7.50
2019-05-20T04:13:55.035Z,7.60
2019-05-20T04:16:32.611Z,6.47
2019-05-20T04:19:09.530Z,7.00
2019-05-20T04:21:46.889Z,8.00
2019-05-20T04:24:24.923Z,7.20
2019-05-20T04:27:03.100Z,7.20
2019-05-20T04:29:40.508Z,6.65
2019-05-20T04:32:17.150Z,6.80
2019-05-20T04:34:53.900Z,8.28
2019-05-20T04:37:29.735Z,7.12
2019-05-20T04:40:06.564Z,7.50
2019-05-20T04:42:45.244Z,7.20
2019-05-20T04:45:22.846Z,7.72
2019-05-20T04:48:00.431Z,7.65
2019-05-20T04:50:38.452Z,7.70
2019-05-20T04:53:15.491Z,7.95
2019-05-20T04:55:53.216Z,7.83
2019-05-20T04:58:30.167Z,6.62
2019-05-20T05:01:07.989Z,6.97
2019-05-20T05:03:44.652Z,6.50
2019-05-20T05:06:22.704Z,6.47
2019-05-20T05:08:57.795Z,7.40
2019-05-20T05:11:35.818Z,6.72
2019-05-20T05:14:14.342Z,6.53
2019-05-20T05:17:04.194Z,6.97
2019-05-20T05:19:42.356Z,6.10
2019-05-20T05:22:19.462Z,7.10
2019-05-20T05:24:57.184Z,6.25
2019-05-20T05:27:34.361Z,6.53
2019-05-20T05:30:12.177Z,6.22
2019-05-20T05:32:48.991Z,6.70
2019-05-20T05:35:25.736Z,6.83
2019-05-20T05:38:01.836Z,5.80
2019-05-20T05:40:39.760Z,6.50
2019-05-20T05:43:17.059Z,7.37
2019-05-20T05:45:54.317Z,6.62
2019-05-20T05:48:30.935Z,6.62
2019-05-20T05:51:07.593Z,6.50
2019-05-20T05:53:43.484Z,5.97
2019-05-20T05:56:20.414Z,5.80
2019-05-20T05:58:55.491Z,5.70
2019-05-20T06:01:26.025Z,5.35
2019-05-20T06:03:56.476Z,5.83
2019-05-20T06:06:26.680Z,6.28
2019-05-20T06:08:57.290Z,5.20
2019-05-20T06:11:27.294Z,6.30
2019-05-20T06:13:57.624Z,6.20
2019-05-20T06:16:36.465Z,5.67
2019-05-20T06:19:00.254Z,5.37
2019-05-20T06:21:30.862Z,6.20
2019-05-20T06:24:01.242Z,7.28
2019-05-20T06:26:31.690Z,6.42
2019-05-20T06:29:03.082Z,5.75
2019-05-20T06:31:33.542Z,7.42
2019-05-20T06:34:04.136Z,6.90
2019-05-20T06:36:35.895Z,7.25
2019-05-20T06:39:11.566Z,6.65
2019-05-20T06:41:42.417Z,6.50
2019-05-20T06:44:13.737Z,6.97
2019-05-20T06:46:44.410Z,6.75
2019-05-20T06:49:16.171Z,6.80
2019-05-20T06:51:46.636Z,7.12
2019-05-20T06:54:17.952Z,7.25
2019-05-20T06:56:48.702Z,7.40
2019-05-20T06:59:19.238Z,7.05
2019-05-20T07:01:49.560Z,7.65
2019-05-20T07:04:20.195Z,7.08
2019-05-20T07:06:50.576Z,6.42
2019-05-20T07:09:20.932Z,6.60
2019-05-20T07:11:53.071Z,7.08
2019-05-20T07:14:23.088Z,6.85
2019-05-20T07:16:53.422Z,7.78
2019-05-20T07:19:25.057Z,6.28
2019-05-20T07:21:55.385Z,8.35
2019-05-20T07:24:25.900Z,7.55
2019-05-20T07:26:56.260Z,7.00
2019-05-20T07:29:26.940Z,7.00
2019-05-20T07:31:58.424Z,7.03
2019-05-20T07:34:28.812Z,7.37
2019-05-20T07:37:12.987Z,7.22
2019-05-20T07:39:43.709Z,6.75
2019-05-20T07:42:13.850Z,7.42
2019-05-20T07:44:44.160Z,6.45
2019-05-20T07:47:14.786Z,7.30
2019-05-20T07:49:45.472Z,6.62
2019-05-20T07:52:16.047Z,7.08
2019-05-20T07:54:47.176Z,7.15
2019-05-20T07:57:18.912Z,7.08
2019-05-20T07:59:51.883Z,7.12
2019-05-20T08:02:22.060Z,6.50
2019-05-20T08:04:52.387Z,6.00
2019-05-20T08:07:29.724Z,6.85
2019-05-20T08:09:54.766Z,7.50
2019-05-20T08:12:25.120Z,6.78
2019-05-20T08:14:55.457Z,7.70
2019-05-20T08:17:26.345Z,7.35
2019-05-20T08:19:56.496Z,6.80
2019-05-20T08:22:26.961Z,8.50
2019-05-20T08:24:57.536Z,8.10
2019-05-20T08:27:28.019Z,8.13
2019-05-20T08:29:58.303Z,8.13
2019-05-20T08:32:28.629Z,7.33
2019-05-20T08:34:58.834Z,8.23
2019-05-20T08:37:44.351Z,8.68
2019-05-20T08:40:01.649Z,8.83
2019-05-20T08:42:33.659Z,8.93
2019-05-20T08:45:05.230Z,8.50
2019-05-20T08:47:35.478Z,8.88
2019-05-20T08:50:13.009Z,9.43
2019-05-20T08:52:39.383Z,9.25
2019-05-20T08:55:10.181Z,8.93
2019-05-20T08:57:40.503Z,8.55
2019-05-20T09:00:18.508Z,8.90
2019-05-20T09:02:48.282Z,8.75
2019-05-20T09:05:18.412Z,7.45
2019-05-20T09:08:02.268Z,7.95
2019-05-20T09:10:20.685Z,8.05
2019-05-20T09:12:51.020Z,8.40
2019-05-20T09:15:21.304Z,8.70
2019-05-20T09:17:51.871Z,8.23
2019-05-20T09:20:22.690Z,9.08
2019-05-20T09:23:06.557Z,8.65
2019-05-20T09:25:37.344Z,9.45
2019-05-20T09:28:07.938Z,9.30
2019-05-20T09:30:39.833Z,8.83
2019-05-20T09:33:10.396Z,9.08
2019-05-20T09:35:40.780Z,8.33
2019-05-20T09:38:20.120Z,9.18
2019-05-20T09:40:49.290Z,7.90
2019-05-20T09:43:19.523Z,8.35
2019-05-20T09:46:05.757Z,8.85
2019-05-20T09:48:25.235Z,8.25
2019-05-20T09:50:54.829Z,8.70
2019-05-20T09:53:25.083Z,8.50
2019-05-20T09:55:55.272Z,9.33
2019-05-20T09:58:25.592Z,10.13
2019-05-20T10:00:55.939Z,9.98
2019-05-20T10:03:26.339Z,10.68
2019-05-20T10:05:56.545Z,10.13
2019-05-20T10:08:37.586Z,9.65
2019-05-20T10:10:59.856Z,10.90
2019-05-20T10:13:30.901Z,11.08
2019-05-20T10:16:01.245Z,11.60
2019-05-20T10:18:37.318Z,10.40
2019-05-20T10:21:03.349Z,11.50
2019-05-20T10:23:33.807Z,9.53
2019-05-20T10:26:04.203Z,9.95
2019-05-20T10:28:34.650Z,11.50
2019-05-20T10:31:05.281Z,10.28
2019-05-20T10:33:37.152Z,11.60
2019-05-20T10:36:07.240Z,11.10
2019-05-20T10:38:54.891Z,9.75
2019-05-20T10:41:09.913Z,10.05
2019-05-20T10:43:40.248Z,9.78
2019-05-20T10:46:10.531Z,9.45
2019-05-20T10:48:40.706Z,10.18
2019-05-20T10:51:12.468Z,11.15
2019-05-20T10:53:43.059Z,10.03
2019-05-20T10:56:13.743Z,10.45
2019-05-20T10:58:44.571Z,10.35
2019-05-20T11:01:34.965Z,9.03
2019-05-20T11:04:05.630Z,10.78
2019-05-20T11:06:35.959Z,10.28
2019-05-20T11:09:14.073Z,10.65
2019-05-20T11:11:39.581Z,10.82
2019-05-20T11:14:09.661Z,11.38
2019-05-20T11:16:39.924Z,9.93
2019-05-20T11:19:10.338Z,9.55
2019-05-20T11:21:40.458Z,10.55
2019-05-20T11:24:11.174Z,10.82
2019-05-20T11:26:41.525Z,10.32
2019-05-20T11:29:13.076Z,9.88
2019-05-20T11:31:43.475Z,10.48
2019-05-20T11:34:13.689Z,10.38
2019-05-20T11:36:44.228Z,11.22
2019-05-20T11:39:31.311Z,11.18
2019-05-20T11:41:53.267Z,10.90
2019-05-20T11:44:18.668Z,11.50
2019-05-20T11:46:48.903Z,10.30
2019-05-20T11:49:19.171Z,10.43
2019-05-20T11:51:49.533Z,10.90
2019-05-20T11:54:19.868Z,11.48
2019-05-20T11:56:50.763Z,12.45
2019-05-20T11:59:21.175Z,12.03
2019-05-20T12:01:51.567Z,11.22
2019-05-20T12:04:21.999Z,11.20
2019-05-20T12:06:52.432Z,12.85
2019-05-20T12:09:22.758Z,12.25
2019-05-20T12:11:53.266Z,13.35
2019-05-20T12:14:23.818Z,14.33
2019-05-20T12:16:54.185Z,12.55
2019-05-20T12:19:24.559Z,14.83
2019-05-20T12:21:55.285Z,15.53
2019-05-20T12:24:27.068Z,15.28
2019-05-20T12:26:57.289Z,12.88
2019-05-20T12:29:27.583Z,15.20
2019-05-20T12:32:11.619Z,15.58
2019-05-20T12:34:42.169Z,13.95
2019-05-20T12:37:18.740Z,16.35
2019-05-20T12:40:05.556Z,16.27
2019-05-20T12:42:21.298Z,16.93
2019-05-20T12:44:51.283Z,17.42
2019-05-20T12:47:21.502Z,17.87
2019-05-20T12:49:52.008Z,14.75
2019-05-20T12:52:22.432Z,15.83
2019-05-20T12:55:07.089Z,15.32
2019-05-20T12:57:24.606Z,16.65
2019-05-20T12:59:54.927Z,16.95
2019-05-20T13:02:25.429Z,16.40
2019-05-20T13:05:10.781Z,15.55
2019-05-20T13:07:42.088Z,16.17
2019-05-20T13:10:27.638Z,15.75
2019-05-20T13:12:44.890Z,17.62
2019-05-20T13:15:17.143Z,17.27
2019-05-20T13:17:48.689Z,16.77
2019-05-20T13:20:18.843Z,16.15
2019-05-20T13:22:49.206Z,16.30
2019-05-20T13:25:19.703Z,13.50
2019-05-20T13:27:49.808Z,16.45
2019-05-20T13:30:20.442Z,16.75
2019-05-20T13:32:51.162Z,16.75
2019-05-20T13:35:21.513Z,16.00
2019-05-20T13:37:51.874Z,17.20
2019-05-20T13:40:22.418Z,15.55
2019-05-20T13:42:53.141Z,15.32
2019-05-20T13:45:23.576Z,15.05
2019-05-20T13:47:54.213Z,14.33
2019-05-20T13:50:24.476Z,15.15
2019-05-20T13:52:56.138Z,15.90
2019-05-20T13:55:26.676Z,13.88
2019-05-20T13:57:56.947Z,16.37
2019-05-20T14:00:27.689Z,17.35
2019-05-20T14:02:57.986Z,18.12
2019-05-20T14:05:28.328Z,17.92
2019-05-20T14:07:58.663Z,19.45
2019-05-20T14:10:29.024Z,19.60
2019-05-20T14:13:00.060Z,23.67
2019-05-20T14:15:31.560Z,22.17
2019-05-20T14:18:01.961Z,21.27
2019-05-20T14:20:32.666Z,23.77
2019-05-20T14:23:03.020Z,22.27
2019-05-20T14:25:33.406Z,24.47
2019-05-20T14:28:04.266Z,21.40
2019-05-20T14:30:34.794Z,23.95
2019-05-20T14:33:05.572Z,22.77
2019-05-20T14:35:36.126Z,22.85
2019-05-20T14:38:06.422Z,23.30
2019-05-20T14:40:36.855Z,24.18
2019-05-20T14:43:07.413Z,21.05
2019-05-20T14:45:37.772Z,22.05
2019-05-20T14:48:08.084Z,24.15
2019-05-20T14:50:38.266Z,23.95
2019-05-20T14:53:08.550Z,21.60
2019-05-20T14:55:42.706Z,21.93
2019-05-20T14:58:12.331Z,22.05
2019-05-20T15:00:42.657Z,20.62
2019-05-20T15:03:13.188Z,20.23
2019-05-20T15:05:43.737Z,19.98
2019-05-20T15:08:14.175Z,19.30
2019-05-20T15:10:44.574Z,19.87
2019-05-20T15:13:15.062Z,18.00
2019-05-20T15:15:48.268Z,19.30
2019-05-20T15:18:18.353Z,19.32
2019-05-20T15:20:48.856Z,17.82
2019-05-20T15:23:19.276Z,18.50
2019-05-20T15:25:49.705Z,18.67
2019-05-20T15:28:20.336Z,17.52
2019-05-20T15:30:52.067Z,19.12
2019-05-20T15:33:23.164Z,18.57
2019-05-20T15:35:53.893Z,18.45
2019-05-20T15:38:24.039Z,19.35
2019-05-20T15:40:54.638Z,21.52
2019-05-20T15:43:24.994Z,22.70
2019-05-20T15:45:55.587Z,24.47
2019-05-20T15:48:25.818Z,22.95
2019-05-20T15:50:56.042Z,24.63
2019-05-20T15:53:25.950Z,25.27
2019-05-20T15:55:56.686Z,23.87
2019-05-20T15:58:27.068Z,24.50
2019-05-20T16:00:57.793Z,25.08
2019-05-20T16:03:28.673Z,25.70
2019-05-20T16:05:59.884Z,26.15
2019-05-20T16:08:30.920Z,27.37
2019-05-20T16:11:01.152Z,30.35
2019-05-20T16:13:32.006Z,28.87
2019-05-20T16:16:02.427Z,29.70
2019-05-20T16:18:32.775Z,32.78
2019-05-20T16:21:03.427Z,33.42
2019-05-20T16:23:35.065Z,32.05
2019-05-20T16:26:05.919Z,29.45
2019-05-20T16:28:35.464Z,30.72
2019-05-20T16:31:04.948Z,31.30
2019-05-20T16:33:34.380Z,28.77
2019-05-20T16:36:04.058Z,30.45
2019-05-20T16:38:33.517Z,31.25
2019-05-20T16:41:03.005Z,29.10
2019-05-20T16:43:32.498Z,29.00
2019-05-20T16:46:01.908Z,28.23
2019-05-20T16:48:32.480Z,28.42
2019-05-20T16:51:01.884Z,28.12
2019-05-20T16:53:31.363Z,28.23
2019-05-20T16:56:00.853Z,26.62
2019-05-20T16:58:30.361Z,26.50
2019-05-20T17:00:59.841Z,26.27
2019-05-20T17:03:29.325Z,26.35
2019-05-20T17:05:58.725Z,27.90
2019-05-20T17:08:28.567Z,27.25
2019-05-20T17:10:59.108Z,28.42
2019-05-20T17:13:28.783Z,25.65
2019-05-20T17:15:58.244Z,25.90
2019-05-20T17:18:27.729Z,26.48
2019-05-20T17:20:57.132Z,25.15
2019-05-20T17:23:26.617Z,24.15
2019-05-20T17:25:56.045Z,24.57
2019-05-20T17:28:25.495Z,23.00
2019-05-20T17:30:55.030Z,24.72
2019-05-20T17:33:24.613Z,22.93
2019-05-20T17:35:54.043Z,20.50
2019-05-20T17:38:23.492Z,20.20
2019-05-20T17:40:52.976Z,21.52
2019-05-20T17:43:22.369Z,19.95
2019-05-20T17:45:51.865Z,20.57
2019-05-20T17:48:21.647Z,22.15
2019-05-20T17:50:51.503Z,20.80
2019-05-20T17:53:20.989Z,21.05
2019-05-20T17:55:50.545Z,22.42
2019-05-20T17:58:20.025Z,22.30
2019-05-20T18:00:49.710Z,21.57
2019-05-20T18:03:19.196Z,22.77
2019-05-20T18:05:48.678Z,22.73
2019-05-20T18:08:18.196Z,22.82
2019-05-20T18:10:48.476Z,24.90
2019-05-20T18:13:17.931Z,25.05
2019-05-20T18:15:47.450Z,28.42
2019-05-20T18:18:16.849Z,28.67
2019-05-20T18:20:46.296Z,28.50
2019-05-20T18:23:15.912Z,28.12
2019-05-20T18:25:45.322Z,28.67
2019-05-20T18:28:16.432Z,31.77
2019-05-20T18:30:45.874Z,28.35
2019-05-20T18:33:15.463Z,29.50
2019-05-20T18:35:46.024Z,29.55
2019-05-20T18:38:18.927Z,30.00
2019-05-20T18:40:48.332Z,27.95
2019-05-20T18:43:24.161Z,30.62
2019-05-20T18:45:53.608Z,28.23
2019-05-20T18:48:23.090Z,28.85
2019-05-20T18:50:52.604Z,26.50
2019-05-20T18:53:22.252Z,29.60
2019-05-20T18:55:51.712Z,30.27
2019-05-20T18:58:21.238Z,29.18
2019-05-20T19:00:50.773Z,30.08
2019-05-20T19:03:20.762Z,28.70
2019-05-20T19:05:50.549Z,29.57
2019-05-20T19:08:20.231Z,28.17
2019-05-20T19:10:49.717Z,26.97
2019-05-20T19:13:19.111Z,26.97
2019-05-20T19:15:48.539Z,27.15
2019-05-20T19:18:18.604Z,26.80
2019-05-20T19:20:48.016Z,27.35
2019-05-20T19:23:17.442Z,28.05
2019-05-20T19:25:46.904Z,26.80
2019-05-20T19:28:16.304Z,26.95
2019-05-20T19:30:45.726Z,26.82
2019-05-20T19:33:15.456Z,25.97
2019-05-20T19:35:45.048Z,25.80
2019-05-20T19:38:15.517Z,26.05
2019-05-20T19:40:45.129Z,25.55
2019-05-20T19:43:14.940Z,28.23
2019-05-20T19:45:44.421Z,28.52
2019-05-20T19:48:13.824Z,27.02
2019-05-20T19:50:43.722Z,28.77
2019-05-20T19:53:13.391Z,27.90
2019-05-20T19:55:42.856Z,27.67
2019-05-20T19:58:12.257Z,28.65
2019-05-20T20:00:43.487Z,27.40
2019-05-20T20:03:13.853Z,27.15
2019-05-20T20:05:43.272Z,29.20
2019-05-20T20:08:12.859Z,29.98
2019-05-20T20:10:42.508Z,29.50
2019-05-20T20:13:12.195Z,30.27
2019-05-20T20:15:42.707Z,34.75
2019-05-20T20:18:12.196Z,31.52
2019-05-20T20:20:42.560Z,32.38
2019-05-20T20:23:12.036Z,32.55
2019-05-20T20:25:41.459Z,31.70
2019-05-20T20:28:10.849Z,34.83
2019-05-20T20:30:40.250Z,34.48
2019-05-20T20:33:09.744Z,35.58
2019-05-20T20:35:39.237Z,36.23
2019-05-20T20:38:08.629Z,35.00
2019-05-20T20:40:38.040Z,36.95
2019-05-20T20:43:07.447Z,35.75
2019-05-20T20:45:36.979Z,39.25
2019-05-20T20:48:07.036Z,35.83
2019-05-20T20:50:36.494Z,37.67
2019-05-20T20:53:06.054Z,37.23
2019-05-20T20:55:35.744Z,37.60
2019-05-20T20:58:05.220Z,37.95
2019-05-20T21:00:35.169Z,37.38
2019-05-20T21:03:06.249Z,38.02
2019-05-20T21:05:35.939Z,36.30
2019-05-20T21:08:05.429Z,36.40
2019-05-20T21:10:34.837Z,37.45
2019-05-20T21:13:09.059Z,34.23
2019-05-20T21:15:38.776Z,34.83
2019-05-20T21:18:08.291Z,33.83
2019-05-20T21:20:37.867Z,31.80
2019-05-20T21:23:07.270Z,30.92
2019-05-20T21:25:36.860Z,32.35
2019-05-20T21:28:06.248Z,30.55
2019-05-20T21:30:37.545Z,29.00
2019-05-20T21:33:09.497Z,30.37
2019-05-20T21:35:38.148Z,28.10
2019-05-20T21:38:10.609Z,28.52
2019-05-20T21:40:40.326Z,29.60
2019-05-20T21:43:09.997Z,27.75
2019-05-20T21:45:39.606Z,25.92
2019-05-20T21:48:09.008Z,28.00
2019-05-20T21:50:40.042Z,27.60
2019-05-20T21:53:09.572Z,28.02
2019-05-20T21:55:42.211Z,26.65
2019-05-20T21:58:11.704Z,27.27
2019-05-20T22:00:47.137Z,27.00
2019-05-20T22:03:24.561Z,26.07
2019-05-20T22:05:50.946Z,27.22
2019-05-20T22:08:20.342Z,28.25
2019-05-20T22:10:51.093Z,26.23
2019-05-20T22:13:20.572Z,28.17
2019-05-20T22:15:50.105Z,27.67
2019-05-20T22:18:19.486Z,31.00
2019-05-20T22:20:48.916Z,28.92
2019-05-20T22:23:22.865Z,27.48
2019-05-20T22:25:52.847Z,29.87
2019-05-20T22:28:22.387Z,30.23
2019-05-20T22:30:51.879Z,30.57
2019-05-20T22:33:21.287Z,29.40
2019-05-20T22:35:50.815Z,32.65
2019-05-20T22:38:20.211Z,30.97
2019-05-20T22:40:49.732Z,34.55
2019-05-20T22:43:19.165Z,34.75
2019-05-20T22:45:48.616Z,34.27
2019-05-20T22:48:19.088Z,39.13
2019-05-20T22:50:49.092Z,37.58
2019-05-20T22:53:18.516Z,38.00
2019-05-20T22:55:47.986Z,37.05
2019-05-20T22:58:17.402Z,36.88
2019-05-20T23:00:46.800Z,38.08
2019-05-20T23:03:16.310Z,36.20
2019-05-20T23:05:45.708Z,35.92
2019-05-20T23:08:15.829Z,38.08
2019-05-20T23:10:45.230Z,38.45
2019-05-20T23:13:14.670Z,39.70
2019-05-20T23:15:44.176Z,39.10
2019-05-20T23:18:13.604Z,38.95
2019-05-20T23:20:43.076Z,38.50
2019-05-20T23:23:12.553Z,38.30
2019-05-20T23:25:42.021Z,38.10
2019-05-20T23:28:11.544Z,40.33
2019-05-20T23:30:41.089Z,40.08
2019-05-20T23:33:10.569Z,42.03
2019-05-20T23:35:39.979Z,39.75
2019-05-20T23:38:09.456Z,38.80
2019-05-20T23:40:38.928Z,38.25
2019-05-20T23:43:08.329Z,39.25
2019-05-20T23:45:37.805Z,41.28
2019-05-20T23:48:07.199Z,39.30
2019-05-20T23:50:36.608Z,39.40
2019-05-20T23:53:06.090Z,41.80
2019-05-20T23:55:35.580Z,41.63
2019-05-20T23:58:05.127Z,41.10
